createdAt,value
2017-10-04T00:01:11.061Z,64.70
2017-10-04T00:03:39.267Z,64.80
2017-10-04T00:06:07.518Z,64.80
2017-10-04T00:08:34.979Z,64.60
2017-10-04T00:11:02.445Z,64.80
2017-10-04T00:13:29.880Z,64.40
2017-10-04T00:15:57.463Z,64.20
2017-10-04T00:18:24.925Z,64.40
2017-10-04T00:20:52.371Z,64.00
2017-10-04T00:23:19.842Z,64.20
2017-10-04T00:25:48.053Z,63.90
2017-10-04T00:28:15.626Z,63.80
2017-10-04T00:30:43.856Z,64.70
2017-10-04T00:33:11.323Z,64.60
2017-10-04T00:35:38.792Z,64.80
2017-10-04T00:38:06.313Z,64.20
2017-10-04T00:40:33.776Z,64.70
2017-10-04T00:43:01.211Z,64.00
2017-10-04T00:45:29.549Z,64.70
2017-10-04T00:47:57.031Z,64.70
2017-10-04T00:50:24.483Z,64.70
2017-10-04T00:52:51.953Z,64.80
2017-10-04T00:55:19.460Z,65.20
2017-10-04T00:57:47.689Z,64.80
2017-10-04T01:00:15.149Z,64.60
2017-10-04T01:02:43.401Z,65.00
2017-10-04T01:05:10.862Z,64.90
2017-10-04T01:07:38.321Z,65.00
2017-10-04T01:10:05.789Z,65.60
2017-10-04T01:12:34.031Z,65.50
2017-10-04T01:15:01.484Z,65.40
2017-10-04T01:17:28.934Z,65.30
2017-10-04T01:19:56.392Z,66.20
2017-10-04T01:22:23.872Z,65.90
2017-10-04T01:24:51.321Z,65.90
2017-10-04T01:27:18.798Z,65.80
2017-10-04T01:29:46.265Z,66.00
2017-10-04T01:32:14.501Z,66.10
2017-10-04T01:34:41.946Z,66.00
2017-10-04T01:37:10.204Z,66.40
2017-10-04T01:39:37.640Z,66.30
2017-10-04T01:42:05.100Z,66.30
2017-10-04T01:44:32.541Z,66.50
2017-10-04T01:47:00.127Z,67.10
2017-10-04T01:49:27.584Z,67.10
2017-10-04T01:51:55.056Z,67.40
2017-10-04T01:54:22.699Z,67.20
2017-10-04T01:56:50.162Z,67.40
2017-10-04T01:59:17.619Z,67.70
2017-10-04T02:01:45.095Z,67.80
2017-10-04T02:04:12.555Z,67.80
2017-10-04T02:06:40.787Z,68.10
2017-10-04T02:09:08.404Z,68.00
2017-10-04T02:11:35.867Z,68.10
2017-10-04T02:14:03.334Z,68.10
2017-10-04T02:16:30.792Z,68.00
2017-10-04T02:18:58.239Z,68.10
2017-10-04T02:21:25.819Z,68.30
2017-10-04T02:23:53.284Z,68.20
2017-10-04T02:26:20.733Z,68.30
2017-10-04T02:28:49.044Z,68.40
2017-10-04T02:31:16.500Z,68.40
2017-10-04T02:33:43.961Z,68.50
2017-10-04T02:36:11.441Z,68.80
2017-10-04T02:38:39.021Z,68.60
2017-10-04T02:41:06.488Z,68.50
2017-10-04T02:43:34.911Z,69.20
2017-10-04T02:46:02.394Z,69.10
2017-10-04T02:48:29.841Z,69.00
2017-10-04T02:50:57.333Z,69.20
2017-10-04T02:53:24.777Z,68.70
2017-10-04T02:55:52.245Z,69.00
2017-10-04T02:58:19.748Z,69.40
2017-10-04T03:00:47.971Z,69.80
2017-10-04T03:03:15.439Z,69.40
2017-10-04T03:05:43.039Z,69.60
2017-10-04T03:08:10.531Z,69.90
2017-10-04T03:10:37.996Z,69.90
2017-10-04T03:13:05.548Z,70.00
2017-10-04T03:15:32.997Z,70.20
2017-10-04T03:18:00.483Z,70.00
2017-10-04T03:20:27.933Z,70.10
2017-10-04T03:22:55.515Z,70.30
2017-10-04T03:25:23.022Z,70.80
2017-10-04T03:27:50.467Z,70.70
2017-10-04T03:30:18.702Z,71.00
2017-10-04T03:32:46.166Z,71.00
2017-10-04T03:35:13.744Z,71.40
2017-10-04T03:37:41.979Z,71.20
2017-10-04T03:40:09.434Z,71.10
2017-10-04T03:42:36.903Z,71.70
2017-10-04T03:45:05.808Z,72.00
2017-10-04T03:47:34.057Z,72.40
2017-10-04T03:50:01.522Z,72.20
2017-10-04T03:52:29.843Z,72.20
2017-10-04T03:54:57.305Z,72.10
2017-10-04T03:57:24.793Z,72.80
2017-10-04T03:59:52.234Z,72.90
2017-10-04T04:02:19.704Z,72.70
2017-10-04T04:04:47.159Z,72.80
2017-10-04T04:07:14.608Z,72.70
2017-10-04T04:09:42.231Z,72.30
2017-10-04T04:12:09.725Z,72.30
2017-10-04T04:14:37.243Z,72.30
2017-10-04T04:17:04.690Z,72.70
2017-10-04T04:19:32.929Z,72.60
2017-10-04T04:22:06.756Z,73.00
2017-10-04T04:24:35.068Z,73.10
2017-10-04T04:27:03.290Z,73.30
2017-10-04T04:29:36.328Z,73.10
2017-10-04T04:32:03.782Z,73.00
2017-10-04T04:34:36.860Z,73.10
2017-10-04T04:37:04.316Z,72.90
2017-10-04T04:39:37.413Z,73.40
2017-10-04T04:42:04.861Z,73.10
2017-10-04T04:44:32.354Z,73.50
2017-10-04T04:46:59.840Z,73.50
2017-10-04T04:49:27.316Z,73.10
2017-10-04T04:51:55.554Z,73.40
2017-10-04T04:54:23.934Z,73.30
2017-10-04T04:59:56.862Z,73.60
2017-10-04T05:02:24.355Z,73.50
2017-10-04T05:04:51.821Z,73.40
2017-10-04T05:07:25.016Z,73.50
2017-10-04T05:09:52.488Z,73.40
2017-10-04T05:12:25.679Z,73.10
2017-10-04T05:14:53.915Z,73.20
2017-10-04T05:17:21.488Z,73.10
2017-10-04T05:19:54.594Z,73.00
2017-10-04T05:22:22.061Z,73.20
2017-10-04T05:24:56.040Z,72.90
2017-10-04T05:27:23.516Z,72.90
2017-10-04T05:29:51.033Z,73.00
2017-10-04T05:32:25.567Z,72.00
2017-10-04T05:34:53.153Z,72.00
2017-10-04T05:37:26.342Z,72.30
2017-10-04T05:39:59.559Z,72.10
2017-10-04T05:42:32.579Z,72.10
2017-10-04T05:45:05.985Z,72.00
2017-10-04T05:47:33.460Z,71.60
2017-10-04T05:50:07.509Z,72.40
2017-10-04T05:52:34.978Z,72.40
2017-10-04T05:55:08.960Z,72.00
2017-10-04T05:57:42.127Z,71.70
2017-10-04T06:03:21.924Z,71.70
2017-10-04T06:08:39.254Z,71.10
2017-10-04T06:11:06.790Z,70.80
2017-10-04T06:13:34.316Z,70.60
2017-10-04T06:16:02.669Z,69.80
2017-10-04T06:18:30.180Z,69.80
2017-10-04T06:20:57.803Z,69.80
2017-10-04T06:23:25.286Z,69.60
2017-10-04T06:25:52.766Z,69.40
2017-10-04T06:28:25.993Z,67.80
2017-10-04T06:30:59.118Z,68.10
2017-10-04T06:33:26.639Z,67.80
2017-10-04T06:35:54.125Z,67.20
2017-10-04T06:38:21.647Z,67.00
2017-10-04T06:40:49.152Z,66.80
2017-10-04T06:43:16.661Z,66.40
2017-10-04T06:45:49.937Z,66.70
2017-10-04T06:51:14.686Z,66.80
2017-10-04T06:53:42.172Z,66.00
2017-10-04T06:56:10.414Z,65.50
2017-10-04T06:58:38.717Z,65.00
2017-10-04T07:01:06.173Z,65.00
2017-10-04T07:03:39.200Z,64.20
2017-10-04T07:06:12.268Z,63.60
2017-10-04T07:08:45.434Z,62.80
2017-10-04T07:11:12.895Z,61.70
2017-10-04T07:13:40.514Z,60.50
2017-10-04T07:16:08.022Z,59.00
2017-10-04T07:21:15.033Z,57.10
2017-10-04T07:23:43.267Z,55.20
2017-10-04T07:26:10.734Z,55.20
2017-10-04T07:28:43.750Z,54.60
2017-10-04T07:31:17.928Z,54.20
2017-10-04T07:36:57.648Z,53.90
2017-10-04T07:39:25.884Z,53.80
2017-10-04T07:41:53.397Z,53.80
2017-10-04T07:44:20.984Z,53.50
2017-10-04T07:46:48.434Z,53.60
2017-10-04T07:49:16.792Z,53.40
2017-10-04T07:51:50.579Z,53.30
2017-10-04T07:54:18.181Z,53.70
2017-10-04T07:56:45.645Z,53.60
2017-10-04T07:59:13.119Z,53.30
2017-10-04T08:01:40.681Z,53.50
2017-10-04T08:04:08.144Z,53.30
2017-10-04T08:06:36.382Z,52.70
2017-10-04T08:09:04.607Z,52.30
2017-10-04T08:11:32.867Z,51.40
2017-10-04T08:14:00.517Z,50.90
2017-10-04T08:16:28.030Z,51.20
2017-10-04T08:18:55.520Z,50.70
2017-10-04T08:21:23.752Z,50.80
2017-10-04T08:23:51.257Z,50.80
2017-10-04T08:26:18.732Z,50.40
2017-10-04T08:28:46.214Z,50.10
2017-10-04T08:31:13.700Z,50.20
2017-10-04T08:33:41.186Z,50.20
2017-10-04T08:36:08.772Z,50.30
2017-10-04T08:38:37.062Z,50.60
2017-10-04T08:41:04.630Z,50.60
2017-10-04T08:43:32.109Z,51.00
2017-10-04T08:45:59.761Z,51.30
2017-10-04T08:48:38.328Z,51.20
2017-10-04T08:51:05.811Z,51.50
2017-10-04T08:53:33.460Z,51.00
2017-10-04T08:56:01.752Z,51.00
2017-10-04T08:58:29.225Z,51.10
2017-10-04T09:00:56.717Z,50.50
2017-10-04T09:03:24.220Z,50.70
2017-10-04T09:06:03.194Z,50.80
2017-10-04T09:08:30.653Z,50.80
2017-10-04T09:10:59.003Z,49.90
2017-10-04T09:13:26.479Z,49.90
2017-10-04T09:15:53.944Z,50.60
2017-10-04T09:18:21.508Z,51.00
2017-10-04T09:20:49.760Z,51.10
2017-10-04T09:23:17.386Z,51.00
2017-10-04T09:25:45.638Z,51.40
2017-10-04T09:28:13.102Z,51.40
2017-10-04T09:30:40.652Z,50.50
2017-10-04T09:33:08.884Z,49.90
2017-10-04T09:35:36.377Z,49.90
2017-10-04T09:38:03.839Z,50.10
2017-10-04T09:40:31.408Z,49.60
2017-10-04T09:42:58.996Z,49.10
2017-10-04T09:45:26.474Z,48.70
2017-10-04T09:47:54.887Z,48.30
2017-10-04T09:50:22.381Z,48.20
2017-10-04T09:52:49.858Z,47.10
2017-10-04T09:55:17.334Z,45.50
2017-10-04T09:57:44.806Z,45.40
2017-10-04T10:00:13.240Z,44.70
2017-10-04T10:02:40.753Z,44.80
2017-10-04T10:05:08.229Z,45.70
2017-10-04T10:07:35.763Z,45.10
2017-10-04T10:10:04.015Z,45.00
2017-10-04T10:12:31.534Z,45.00
2017-10-04T10:14:59.898Z,45.40
2017-10-04T10:17:27.405Z,45.50
2017-10-04T10:19:54.877Z,45.20
2017-10-04T10:22:23.312Z,45.70
2017-10-04T10:24:50.791Z,45.60
2017-10-04T10:27:19.069Z,45.00
2017-10-04T10:29:46.562Z,45.00
2017-10-04T10:32:14.035Z,44.70
2017-10-04T10:34:41.778Z,45.00
2017-10-04T10:37:09.248Z,44.30
2017-10-04T10:39:36.721Z,43.60
2017-10-04T10:42:05.333Z,39.60
2017-10-04T10:44:33.570Z,38.20
2017-10-04T10:47:01.069Z,38.20
2017-10-04T10:49:28.549Z,37.10
2017-10-04T10:51:56.077Z,35.50
2017-10-04T10:54:23.578Z,34.40
2017-10-04T10:56:51.818Z,33.70
2017-10-04T10:59:19.474Z,33.60
2017-10-04T11:01:47.004Z,33.40
2017-10-04T11:04:14.699Z,32.30
2017-10-04T11:06:42.181Z,31.30
2017-10-04T11:09:09.644Z,32.30
2017-10-04T11:11:37.277Z,32.30
2017-10-04T11:14:05.731Z,34.80
2017-10-04T11:16:33.216Z,34.90
2017-10-04T11:19:00.782Z,35.70
2017-10-04T11:21:28.254Z,36.30
2017-10-04T11:23:56.616Z,38.50
2017-10-04T11:26:24.870Z,39.50
2017-10-04T11:28:52.405Z,39.40
2017-10-04T11:31:20.021Z,39.80
2017-10-04T11:33:47.490Z,40.40
2017-10-04T11:36:15.750Z,42.00
2017-10-04T11:38:43.229Z,42.10
2017-10-04T11:41:10.828Z,42.20
2017-10-04T11:43:38.307Z,42.00
2017-10-04T11:46:05.792Z,41.70
2017-10-04T11:48:33.286Z,42.20
2017-10-04T11:51:00.933Z,43.00
2017-10-04T11:53:28.537Z,43.30
2017-10-04T11:55:55.995Z,42.50
2017-10-04T11:58:23.474Z,42.20
2017-10-04T12:00:50.959Z,42.90
2017-10-04T12:03:18.465Z,42.70
2017-10-04T12:05:46.247Z,43.00
2017-10-04T12:08:13.819Z,43.20
2017-10-04T12:10:41.310Z,43.30
2017-10-04T12:13:08.806Z,42.90
2017-10-04T12:15:36.298Z,42.60
2017-10-04T12:18:03.786Z,43.00
2017-10-04T12:20:31.253Z,43.60
2017-10-04T12:22:58.842Z,43.20
2017-10-04T12:25:26.318Z,43.00
2017-10-04T12:27:54.000Z,43.40
2017-10-04T12:30:21.478Z,43.50
2017-10-04T12:32:48.962Z,43.50
2017-10-04T12:35:16.447Z,44.40
2017-10-04T12:37:43.946Z,44.20
2017-10-04T12:40:11.401Z,43.80
2017-10-04T12:42:39.119Z,43.80
2017-10-04T12:45:06.598Z,44.10
2017-10-04T12:47:34.391Z,43.90
2017-10-04T12:50:02.667Z,44.40
2017-10-04T12:52:30.299Z,44.40
2017-10-04T12:54:58.570Z,43.90
2017-10-04T12:57:26.072Z,44.20
2017-10-04T12:59:54.493Z,44.90
2017-10-04T13:02:21.991Z,44.90
2017-10-04T13:04:50.270Z,44.20
2017-10-04T13:07:18.543Z,44.80
2017-10-04T13:09:46.031Z,44.90
2017-10-04T13:12:13.509Z,44.30
2017-10-04T13:14:41.016Z,44.80
2017-10-04T13:17:09.269Z,45.60
2017-10-04T13:19:36.750Z,45.70
2017-10-04T13:22:04.262Z,46.00
2017-10-04T13:24:31.725Z,45.80
2017-10-04T13:26:59.182Z,46.00
2017-10-04T13:29:26.708Z,46.10
2017-10-04T13:31:54.345Z,45.70
2017-10-04T13:34:21.982Z,46.10
2017-10-04T13:36:49.437Z,46.40
2017-10-04T13:39:16.908Z,46.30
2017-10-04T13:41:44.398Z,46.10
2017-10-04T13:44:11.870Z,46.20
2017-10-04T13:46:39.545Z,46.50
2017-10-04T13:49:07.013Z,46.70
2017-10-04T13:51:35.315Z,46.10
2017-10-04T13:54:03.552Z,45.90
2017-10-04T13:56:31.028Z,46.00
2017-10-04T13:58:58.516Z,46.40
2017-10-04T14:01:26.094Z,46.90
2017-10-04T14:03:53.603Z,46.80
2017-10-04T14:06:21.084Z,47.30
2017-10-04T14:08:48.582Z,48.00
2017-10-04T14:11:16.072Z,48.30
2017-10-04T14:13:43.565Z,49.00
2017-10-04T14:16:11.791Z,50.10
2017-10-04T14:18:39.363Z,50.30
2017-10-04T14:21:07.583Z,50.70
2017-10-04T14:23:35.370Z,50.70
2017-10-04T14:26:02.832Z,50.50
2017-10-04T14:28:31.042Z,50.40
2017-10-04T14:30:59.593Z,50.60
2017-10-04T14:33:27.063Z,50.60
2017-10-04T14:35:54.889Z,50.40
2017-10-04T14:38:22.375Z,50.30
2017-10-04T14:40:50.645Z,51.10
2017-10-04T14:43:18.228Z,51.10
2017-10-04T14:45:45.713Z,51.40
2017-10-04T14:48:13.363Z,51.40
2017-10-04T14:50:40.914Z,51.20
2017-10-04T14:53:08.383Z,51.70
2017-10-04T14:55:35.945Z,51.70
2017-10-04T14:58:03.424Z,52.00
2017-10-04T15:00:30.915Z,52.20
2017-10-04T15:02:58.442Z,52.50
2017-10-04T15:05:26.811Z,52.10
2017-10-04T15:07:54.545Z,52.10
2017-10-04T15:10:22.179Z,51.80
2017-10-04T15:12:49.660Z,52.10
2017-10-04T15:15:17.130Z,52.30
2017-10-04T15:17:44.750Z,52.70
2017-10-04T15:20:12.274Z,52.90
2017-10-04T15:22:39.775Z,52.90
2017-10-04T15:25:07.260Z,52.60
2017-10-04T15:27:35.027Z,52.70
2017-10-04T15:30:02.518Z,53.50
2017-10-04T15:32:30.017Z,53.30
2017-10-04T15:34:57.512Z,52.90
2017-10-04T15:37:25.028Z,53.10
2017-10-04T15:39:52.532Z,53.60
2017-10-04T15:42:20.822Z,53.50
2017-10-04T15:44:48.265Z,53.40
2017-10-04T15:47:15.795Z,53.60
2017-10-04T15:49:44.021Z,54.10
2017-10-04T15:52:11.517Z,54.10
2017-10-04T15:54:39.020Z,54.40
2017-10-04T15:57:06.607Z,54.50
2017-10-04T15:59:34.137Z,54.60
2017-10-04T16:02:01.749Z,54.80
2017-10-04T16:04:29.234Z,55.10
2017-10-04T16:06:57.476Z,55.50
2017-10-04T16:09:24.949Z,55.50
2017-10-04T16:11:52.600Z,56.00
2017-10-04T16:14:20.960Z,56.10
2017-10-04T16:16:49.690Z,56.40
2017-10-04T16:19:17.156Z,56.50
2017-10-04T16:21:45.459Z,56.60
2017-10-04T16:24:13.687Z,56.60
2017-10-04T16:26:41.199Z,56.60
2017-10-04T16:29:08.676Z,56.50
2017-10-04T16:31:37.130Z,56.50
2017-10-04T16:34:05.367Z,56.50
2017-10-04T16:36:32.830Z,56.60
2017-10-04T16:39:01.096Z,56.80
2017-10-04T16:44:06.894Z,56.90
2017-10-04T16:46:34.370Z,56.80
2017-10-04T16:49:01.979Z,56.60
2017-10-04T16:51:29.571Z,56.70
2017-10-04T16:53:57.827Z,56.30
2017-10-04T16:56:25.336Z,56.30
2017-10-04T16:58:52.828Z,56.20
2017-10-04T17:01:20.626Z,56.40
2017-10-04T17:03:48.102Z,56.30
2017-10-04T17:06:15.566Z,56.70
2017-10-04T17:08:43.103Z,57.40
2017-10-04T17:11:10.757Z,56.80
2017-10-04T17:13:39.360Z,57.00
2017-10-04T17:16:06.847Z,56.90
2017-10-04T17:18:34.326Z,56.90
2017-10-04T17:21:01.857Z,57.10
2017-10-04T17:23:29.314Z,57.20
2017-10-04T17:25:56.793Z,57.60
2017-10-04T17:28:24.266Z,57.50
2017-10-04T17:30:51.762Z,57.60
2017-10-04T17:33:20.174Z,57.90
2017-10-04T17:35:48.441Z,57.90
2017-10-04T17:38:16.035Z,58.00
2017-10-04T17:40:43.620Z,58.10
2017-10-04T17:43:11.104Z,58.30
2017-10-04T17:45:38.617Z,58.30
2017-10-04T17:48:06.190Z,58.50
2017-10-04T17:50:34.440Z,58.60
2017-10-04T17:53:02.070Z,58.40
2017-10-04T17:55:29.536Z,58.90
2017-10-04T17:57:57.043Z,59.30
2017-10-04T18:00:25.331Z,59.40
2017-10-04T18:02:52.824Z,59.40
2017-10-04T18:05:21.074Z,59.90
2017-10-04T18:07:48.549Z,59.90
2017-10-04T18:10:16.045Z,60.30
2017-10-04T18:12:43.552Z,60.40
2017-10-04T18:15:11.012Z,60.40
2017-10-04T18:17:38.502Z,60.40
2017-10-04T18:20:05.972Z,60.30
2017-10-04T18:22:33.464Z,59.90
2017-10-04T18:25:00.931Z,59.90
2017-10-04T18:27:28.437Z,59.90
2017-10-04T18:29:56.103Z,60.00
2017-10-04T18:32:23.595Z,59.80
2017-10-04T18:34:51.097Z,59.90
2017-10-04T18:37:18.591Z,59.80
2017-10-04T18:39:46.159Z,59.80
2017-10-04T18:42:13.625Z,59.70
2017-10-04T18:44:42.117Z,59.60
2017-10-04T18:47:09.698Z,59.70
2017-10-04T18:49:37.209Z,59.90
2017-10-04T18:52:04.697Z,59.90
2017-10-04T18:54:32.164Z,59.50
2017-10-04T18:56:59.770Z,59.40
2017-10-04T18:59:27.237Z,59.40
2017-10-04T19:01:54.720Z,59.20
2017-10-04T19:04:22.219Z,59.10
2017-10-04T19:06:49.674Z,59.00
2017-10-04T19:09:17.197Z,58.80
2017-10-04T19:11:44.656Z,58.50
2017-10-04T19:14:12.886Z,58.70
2017-10-04T19:16:41.148Z,58.70
2017-10-04T19:19:08.631Z,58.60
2017-10-04T19:21:36.132Z,58.60
2017-10-04T19:24:03.644Z,58.50
2017-10-04T19:26:31.115Z,58.20
2017-10-04T19:28:58.601Z,58.40
2017-10-04T19:31:26.097Z,58.30
2017-10-04T19:33:53.562Z,58.30
2017-10-04T19:36:21.826Z,58.20
2017-10-04T19:38:50.087Z,58.30
2017-10-04T19:41:17.681Z,58.40
2017-10-04T19:43:45.147Z,58.30
2017-10-04T19:46:13.398Z,58.30
2017-10-04T19:48:40.898Z,58.30
2017-10-04T19:51:08.376Z,58.30
2017-10-04T19:53:35.867Z,58.70
2017-10-04T19:56:03.343Z,59.10
2017-10-04T19:58:30.821Z,58.90
2017-10-04T20:00:58.393Z,59.10
2017-10-04T20:03:25.850Z,59.40
2017-10-04T20:05:53.450Z,59.40
2017-10-04T20:08:20.973Z,59.70
2017-10-04T20:10:48.596Z,59.80
2017-10-04T20:13:16.089Z,59.60
2017-10-04T20:15:43.574Z,59.90
2017-10-04T20:18:11.169Z,59.70
2017-10-04T20:20:38.643Z,59.70
2017-10-04T20:23:07.061Z,59.60
2017-10-04T20:25:34.570Z,59.70
2017-10-04T20:28:02.841Z,59.60
2017-10-04T20:30:30.310Z,59.60
2017-10-04T20:32:57.785Z,59.40
2017-10-04T20:35:25.269Z,59.20
2017-10-04T20:37:52.744Z,59.50
2017-10-04T20:40:20.333Z,59.30
2017-10-04T20:42:47.790Z,59.60
2017-10-04T20:45:16.170Z,59.60
2017-10-04T20:47:43.647Z,59.60
2017-10-04T20:50:11.094Z,59.70
2017-10-04T20:52:38.593Z,59.90
2017-10-04T20:55:06.075Z,60.00
2017-10-04T20:57:33.667Z,60.00
2017-10-04T21:00:01.149Z,60.00
2017-10-04T21:02:28.615Z,59.90
2017-10-04T21:04:56.863Z,59.60
2017-10-04T21:07:25.092Z,59.50
2017-10-04T21:09:53.324Z,59.30
2017-10-04T21:12:20.800Z,59.30
2017-10-04T21:14:48.399Z,59.70
2017-10-04T21:17:15.895Z,59.60
2017-10-04T21:19:43.343Z,59.30
2017-10-04T21:22:11.607Z,58.90
2017-10-04T21:24:39.851Z,58.50
2017-10-04T21:27:07.351Z,58.80
2017-10-04T21:29:34.898Z,58.70
2017-10-04T21:32:02.379Z,58.60
2017-10-04T21:34:29.835Z,58.60
2017-10-04T21:36:58.098Z,58.30
2017-10-04T21:39:25.577Z,58.30
2017-10-04T21:41:53.114Z,58.30
2017-10-04T21:44:20.593Z,58.30
2017-10-04T21:46:48.203Z,58.00
2017-10-04T21:49:15.693Z,58.00
2017-10-04T21:51:43.156Z,58.30
2017-10-04T21:54:10.647Z,58.00
2017-10-04T21:56:38.102Z,57.90
2017-10-04T21:59:06.349Z,57.20
2017-10-04T22:01:33.832Z,57.20
2017-10-04T22:04:02.069Z,57.80
2017-10-04T22:06:29.565Z,57.30
2017-10-04T22:08:57.022Z,57.30
2017-10-04T22:11:24.479Z,57.30
2017-10-04T22:13:51.942Z,57.60
2017-10-04T22:16:19.492Z,57.50
2017-10-04T22:18:47.721Z,57.40
2017-10-04T22:21:15.201Z,57.30
2017-10-04T22:23:42.772Z,57.20
2017-10-04T22:26:10.226Z,57.00
2017-10-04T22:31:16.875Z,56.90
2017-10-04T22:33:44.354Z,56.90
2017-10-04T22:36:11.824Z,57.20
2017-10-04T22:38:40.072Z,57.20
2017-10-04T22:41:07.546Z,57.30
2017-10-04T22:43:35.019Z,57.00
2017-10-04T22:46:03.244Z,56.90
2017-10-04T22:48:30.737Z,57.00
2017-10-04T22:50:58.209Z,56.90
2017-10-04T22:53:25.693Z,56.90
2017-10-04T22:55:53.954Z,57.20
2017-10-04T22:58:21.430Z,56.50
2017-10-04T23:00:49.015Z,56.50
2017-10-04T23:03:16.478Z,56.30
2017-10-04T23:05:44.713Z,56.20
2017-10-04T23:08:12.177Z,56.20
2017-10-04T23:10:40.411Z,56.30
2017-10-04T23:13:07.893Z,56.30
2017-10-04T23:15:35.379Z,56.40
2017-10-04T23:18:02.847Z,56.40
2017-10-04T23:20:30.320Z,56.50
2017-10-04T23:22:58.575Z,56.70
2017-10-04T23:25:26.863Z,56.60
2017-10-04T23:27:54.313Z,56.70
2017-10-04T23:30:23.444Z,56.60
2017-10-04T23:32:50.987Z,56.60
2017-10-04T23:35:18.435Z,56.70
2017-10-04T23:37:46.695Z,57.00
2017-10-04T23:40:14.367Z,57.00
2017-10-04T23:47:58.982Z,56.80
2017-10-04T23:50:27.254Z,56.50
2017-10-04T23:52:54.746Z,56.40
2017-10-04T23:55:22.209Z,56.60
2017-10-04T23:57:49.679Z,56.70
